Terminal Aerodrome Forecast
Issued by NWS

Home | Current Version | Previous Version | Text Only | Print | Product List | Glossary On
Versions: 1 2 3 4 5 6 7 8 9 10 11 12 13 14 15 16 17 18 19 20 21 22 23 24 25 26 27 28
110
FTUS46 KOTX 091724
TAFCOE
TAF
KCOE 091724Z 0918/1018 04013KT P6SM SCT003
     FM091830 04011KT P6SM FEW250
     FM092300 04008KT P6SM FEW250
     FM101400 05006KT 1SM BR BKN002
      AMD LTD TO CLD AND VIS=

USA.gov is the U.S. government's official web portal to all federal, state and local government web resources and services.